sensor_id;sensor_type;location;lat;lon;timestamp;temperature;humidity
4183;DHT22;2105;52.300;9.182;2024-03-02T00:00:14;8.40;1.00
4183;DHT22;2105;52.300;9.182;2024-03-02T00:02:41;8.50;1.00
4183;DHT22;2105;52.300;9.182;2024-03-02T00:05:11;8.50;99.90
4183;DHT22;2105;52.300;9.182;2024-03-02T00:07:39;8.60;99.90
4183;DHT22;2105;52.300;9.182;2024-03-02T00:10:09;8.60;99.90
4183;DHT22;2105;52.300;9.182;2024-03-02T00:12:36;8.60;99.90
4183;DHT22;2105;52.300;9.182;2024-03-02T00:15:06;8.60;99.90
4183;DHT22;2105;52.300;9.182;2024-03-02T00:17:33;8.60;99.90
4183;DHT22;2105;52.300;9.182;2024-03-02T00:20:00;8.60;99.90
4183;DHT22;2105;52.300;9.182;2024-03-02T00:22:29;8.60;99.90
4183;DHT22;2105;52.300;9.182;2024-03-02T00:24:56;8.60;99.90
4183;DHT22;2105;52.300;9.182;2024-03-02T00:27:23;8.50;99.90
4183;DHT22;2105;52.300;9.182;2024-03-02T00:29:50;8.50;99.90
4183;DHT22;2105;52.300;9.182;2024-03-02T00:32:17;8.50;99.90
4183;DHT22;2105;52.300;9.182;2024-03-02T00:34:44;8.50;1.00
4183;DHT22;2105;52.300;9.182;2024-03-02T00:37:11;8.50;1.00
4183;DHT22;2105;52.300;9.182;2024-03-02T00:39:39;8.50;1.00
4183;DHT22;2105;52.300;9.182;2024-03-02T00:42:06;8.50;99.90
4183;DHT22;2105;52.300;9.182;2024-03-02T00:44:33;8.60;99.90
4183;DHT22;2105;52.300;9.182;2024-03-02T00:47:01;8.50;99.90
4183;DHT22;2105;52.300;9.182;2024-03-02T00:49:28;8.60;99.90
4183;DHT22;2105;52.300;9.182;2024-03-02T00:51:55;8.40;99.90
4183;DHT22;2105;52.300;9.182;2024-03-02T00:54:23;8.40;1.00
4183;DHT22;2105;52.300;9.182;2024-03-02T00:56:51;8.30;1.00
4183;DHT22;2105;52.300;9.182;2024-03-02T00:59:20;8.10;1.00
4183;DHT22;2105;52.300;9.182;2024-03-02T01:01:47;8.10;1.00
4183;DHT22;2105;52.300;9.182;2024-03-02T01:04:14;8.10;99.90
4183;DHT22;2105;52.300;9.182;2024-03-02T01:06:42;8.10;99.90
4183;DHT22;2105;52.300;9.182;2024-03-02T01:09:09;8.10;99.90
4183;DHT22;2105;52.300;9.182;2024-03-02T01:11:37;8.10;99.90
4183;DHT22;2105;52.300;9.182;2024-03-02T01:14:05;8.10;99.90
4183;DHT22;2105;52.300;9.182;2024-03-02T01:16:31;8.10;99.90
4183;DHT22;2105;52.300;9.182;2024-03-02T01:18:58;8.10;99.90
4183;DHT22;2105;52.300;9.182;2024-03-02T01:21:25;8.10;99.90
4183;DHT22;2105;52.300;9.182;2024-03-02T01:23:52;8.20;99.90
4183;DHT22;2105;52.300;9.182;2024-03-02T01:26:19;8.20;53.10
4183;DHT22;2105;52.300;9.182;2024-03-02T01:28:45;8.20;27.00
4183;DHT22;2105;52.300;9.182;2024-03-02T01:31:13;8.20;1.00
4183;DHT22;2105;52.300;9.182;2024-03-02T01:33:40;8.10;19.60
4183;DHT22;2105;52.300;9.182;2024-03-02T01:36:07;8.20;46.10
4183;DHT22;2105;52.300;9.182;2024-03-02T01:38:34;8.20;17.90
4183;DHT22;2105;52.300;9.182;2024-03-02T01:41:00;8.10;1.00
4183;DHT22;2105;52.300;9.182;2024-03-02T01:43:27;8.10;1.00
4183;DHT22;2105;52.300;9.182;2024-03-02T01:45:54;8.20;3.30
4183;DHT22;2105;52.300;9.182;2024-03-02T01:48:23;8.10;4.10
4183;DHT22;2105;52.300;9.182;2024-03-02T01:50:50;8.10;63.80
4183;DHT22;2105;52.300;9.182;2024-03-02T01:53:17;8.20;1.00
4183;DHT22;2105;52.300;9.182;2024-03-02T01:55:44;8.20;1.00
4183;DHT22;2105;52.300;9.182;2024-03-02T01:58:11;8.20;1.00
4183;DHT22;2105;52.300;9.182;2024-03-02T02:00:37;8.20;1.00
4183;DHT22;2105;52.300;9.182;2024-03-02T02:03:04;8.20;1.00
4183;DHT22;2105;52.300;9.182;2024-03-02T02:05:33;8.20;1.00
4183;DHT22;2105;52.300;9.182;2024-03-02T02:08:01;8.20;1.00
4183;DHT22;2105;52.300;9.182;2024-03-02T02:10:27;8.20;1.00
4183;DHT22;2105;52.300;9.182;2024-03-02T02:12:54;8.20;1.00
4183;DHT22;2105;52.300;9.182;2024-03-02T02:15:24;8.20;1.00
4183;DHT22;2105;52.300;9.182;2024-03-02T02:17:51;8.10;1.00
4183;DHT22;2105;52.300;9.182;2024-03-02T02:20:18;8.10;1.00
4183;DHT22;2105;52.300;9.182;2024-03-02T02:22:57;8.10;1.00
4183;DHT22;2105;52.300;9.182;2024-03-02T02:25:24;8.20;1.00
4183;DHT22;2105;52.300;9.182;2024-03-02T02:27:50;8.10;1.00
4183;DHT22;2105;52.300;9.182;2024-03-02T02:30:20;8.10;1.00
4183;DHT22;2105;52.300;9.182;2024-03-02T02:32:47;8.10;1.00
4183;DHT22;2105;52.300;9.182;2024-03-02T02:35:14;8.10;1.00
4183;DHT22;2105;52.300;9.182;2024-03-02T02:37:41;8.10;1.00
4183;DHT22;2105;52.300;9.182;2024-03-02T02:40:10;8.10;1.00
4183;DHT22;2105;52.300;9.182;2024-03-02T02:42:36;8.10;1.00
4183;DHT22;2105;52.300;9.182;2024-03-02T02:45:04;8.00;58.80
4183;DHT22;2105;52.300;9.182;2024-03-02T02:47:31;8.00;3.90
4183;DHT22;2105;52.300;9.182;2024-03-02T02:50:00;8.10;10.50
4183;DHT22;2105;52.300;9.182;2024-03-02T02:52:31;8.00;53.40
4183;DHT22;2105;52.300;9.182;2024-03-02T02:54:58;8.00;74.90
4183;DHT22;2105;52.300;9.182;2024-03-02T02:57:26;8.00;99.90
4183;DHT22;2105;52.300;9.182;2024-03-02T02:59:55;8.00;99.90
4183;DHT22;2105;52.300;9.182;2024-03-02T03:02:22;8.00;99.90
4183;DHT22;2105;52.300;9.182;2024-03-02T03:04:49;8.00;99.90
4183;DHT22;2105;52.300;9.182;2024-03-02T03:07:15;8.00;99.90
4183;DHT22;2105;52.300;9.182;2024-03-02T03:09:42;8.00;99.90
4183;DHT22;2105;52.300;9.182;2024-03-02T03:12:08;8.00;99.90
4183;DHT22;2105;52.300;9.182;2024-03-02T03:14:36;8.00;99.90
4183;DHT22;2105;52.300;9.182;2024-03-02T03:17:03;8.00;99.90
4183;DHT22;2105;52.300;9.182;2024-03-02T03:19:30;8.10;99.90
4183;DHT22;2105;52.300;9.182;2024-03-02T03:21:56;8.00;99.90
4183;DHT22;2105;52.300;9.182;2024-03-02T03:24:23;8.00;99.90
4183;DHT22;2105;52.300;9.182;2024-03-02T03:26:49;8.00;99.90
4183;DHT22;2105;52.300;9.182;2024-03-02T03:29:16;8.00;99.90
4183;DHT22;2105;52.300;9.182;2024-03-02T03:31:44;8.00;1.00
4183;DHT22;2105;52.300;9.182;2024-03-02T03:34:10;7.90;1.00
4183;DHT22;2105;52.300;9.182;2024-03-02T03:36:41;7.90;1.00
4183;DHT22;2105;52.300;9.182;2024-03-02T03:39:07;7.90;1.00
4183;DHT22;2105;52.300;9.182;2024-03-02T03:41:34;7.90;1.00
4183;DHT22;2105;52.300;9.182;2024-03-02T03:44:01;7.90;1.00
4183;DHT22;2105;52.300;9.182;2024-03-02T03:46:29;7.80;8.60
4183;DHT22;2105;52.300;9.182;2024-03-02T03:48:57;7.90;1.00
4183;DHT22;2105;52.300;9.182;2024-03-02T03:51:23;7.80;45.40
4183;DHT22;2105;52.300;9.182;2024-03-02T03:53:50;7.90;95.50
4183;DHT22;2105;52.300;9.182;2024-03-02T03:56:16;7.90;63.40
4183;DHT22;2105;52.300;9.182;2024-03-02T03:58:43;7.90;69.60
4183;DHT22;2105;52.300;9.182;2024-03-02T04:01:10;7.90;99.90
4183;DHT22;2105;52.300;9.182;2024-03-02T04:03:37;7.90;99.90
4183;DHT22;2105;52.300;9.182;2024-03-02T04:06:06;7.90;85.30
4183;DHT22;2105;52.300;9.182;2024-03-02T04:08:32;7.90;99.90
4183;DHT22;2105;52.300;9.182;2024-03-02T04:10:59;7.90;99.90
4183;DHT22;2105;52.300;9.182;2024-03-02T04:13:25;7.90;99.90
4183;DHT22;2105;52.300;9.182;2024-03-02T04:15:52;7.90;99.90
4183;DHT22;2105;52.300;9.182;2024-03-02T04:18:19;7.90;99.90
4183;DHT22;2105;52.300;9.182;2024-03-02T04:20:46;7.90;99.90
4183;DHT22;2105;52.300;9.182;2024-03-02T04:23:13;7.90;99.90
4183;DHT22;2105;52.300;9.182;2024-03-02T04:25:40;7.90;99.90
4183;DHT22;2105;52.300;9.182;2024-03-02T04:28:07;7.90;99.90
4183;DHT22;2105;52.300;9.182;2024-03-02T04:30:33;7.90;99.90
4183;DHT22;2105;52.300;9.182;2024-03-02T04:33:00;7.90;99.90
4183;DHT22;2105;52.300;9.182;2024-03-02T04:35:27;7.90;99.90
4183;DHT22;2105;52.300;9.182;2024-03-02T04:37:54;7.80;99.90
4183;DHT22;2105;52.300;9.182;2024-03-02T04:40:22;7.90;1.00
4183;DHT22;2105;52.300;9.182;2024-03-02T04:42:48;7.80;1.00
4183;DHT22;2105;52.300;9.182;2024-03-02T04:45:15;7.90;1.00
4183;DHT22;2105;52.300;9.182;2024-03-02T04:47:42;7.90;1.00
4183;DHT22;2105;52.300;9.182;2024-03-02T04:50:08;7.90;1.00
4183;DHT22;2105;52.300;9.182;2024-03-02T04:52:35;7.90;1.00
4183;DHT22;2105;52.300;9.182;2024-03-02T04:55:02;7.90;1.00
4183;DHT22;2105;52.300;9.182;2024-03-02T04:58:02;7.90;99.90
4183;DHT22;2105;52.300;9.182;2024-03-02T05:00:28;7.90;99.90
4183;DHT22;2105;52.300;9.182;2024-03-02T05:02:55;7.90;99.90
4183;DHT22;2105;52.300;9.182;2024-03-02T05:05:21;7.90;99.90
4183;DHT22;2105;52.300;9.182;2024-03-02T05:07:48;7.90;99.90
4183;DHT22;2105;52.300;9.182;2024-03-02T05:10:15;7.90;99.90
4183;DHT22;2105;52.300;9.182;2024-03-02T05:12:42;7.90;1.00
4183;DHT22;2105;52.300;9.182;2024-03-02T05:15:23;7.90;1.00
4183;DHT22;2105;52.300;9.182;2024-03-02T05:17:50;7.80;1.00
4183;DHT22;2105;52.300;9.182;2024-03-02T05:20:17;7.80;1.00
4183;DHT22;2105;52.300;9.182;2024-03-02T05:22:44;7.80;1.00
4183;DHT22;2105;52.300;9.182;2024-03-02T05:25:10;7.80;99.90
4183;DHT22;2105;52.300;9.182;2024-03-02T05:27:37;7.80;99.90
4183;DHT22;2105;52.300;9.182;2024-03-02T05:30:05;7.70;99.90
4183;DHT22;2105;52.300;9.182;2024-03-02T05:32:34;7.80;99.90
4183;DHT22;2105;52.300;9.182;2024-03-02T05:35:00;7.70;99.90
4183;DHT22;2105;52.300;9.182;2024-03-02T05:37:28;7.70;1.00
4183;DHT22;2105;52.300;9.182;2024-03-02T05:39:55;7.80;99.90
4183;DHT22;2105;52.300;9.182;2024-03-02T05:42:21;7.70;99.90
4183;DHT22;2105;52.300;9.182;2024-03-02T05:44:48;7.80;99.90
4183;DHT22;2105;52.300;9.182;2024-03-02T05:47:15;7.80;99.90
4183;DHT22;2105;52.300;9.182;2024-03-02T05:49:43;7.70;99.90
4183;DHT22;2105;52.300;9.182;2024-03-02T05:52:10;7.80;99.90
4183;DHT22;2105;52.300;9.182;2024-03-02T05:54:37;7.80;99.90
4183;DHT22;2105;52.300;9.182;2024-03-02T05:57:04;7.80;30.40
4183;DHT22;2105;52.300;9.182;2024-03-02T05:59:51;7.90;1.00
4183;DHT22;2105;52.300;9.182;2024-03-02T06:02:19;7.90;1.00
4183;DHT22;2105;52.300;9.182;2024-03-02T06:04:47;7.90;1.00
4183;DHT22;2105;52.300;9.182;2024-03-02T06:07:13;7.90;1.00
4183;DHT22;2105;52.300;9.182;2024-03-02T06:09:41;7.90;1.00
4183;DHT22;2105;52.300;9.182;2024-03-02T06:12:08;7.90;1.00
4183;DHT22;2105;52.300;9.182;2024-03-02T06:14:34;7.80;1.00
4183;DHT22;2105;52.300;9.182;2024-03-02T06:17:01;7.90;1.00
4183;DHT22;2105;52.300;9.182;2024-03-02T06:19:27;7.90;1.00
4183;DHT22;2105;52.300;9.182;2024-03-02T06:21:56;7.90;1.00
4183;DHT22;2105;52.300;9.182;2024-03-02T06:24:22;7.90;1.00
4183;DHT22;2105;52.300;9.182;2024-03-02T06:26:49;7.90;1.00
4183;DHT22;2105;52.300;9.182;2024-03-02T06:29:15;7.90;1.00
4183;DHT22;2105;52.300;9.182;2024-03-02T06:31:42;7.80;26.50
4183;DHT22;2105;52.300;9.182;2024-03-02T06:34:09;7.90;99.90
4183;DHT22;2105;52.300;9.182;2024-03-02T06:36:35;7.80;90.10
4183;DHT22;2105;52.300;9.182;2024-03-02T06:39:03;7.90;81.80
4183;DHT22;2105;52.300;9.182;2024-03-02T06:41:30;7.90;33.60
4183;DHT22;2105;52.300;9.182;2024-03-02T06:43:57;7.90;1.00
4183;DHT22;2105;52.300;9.182;2024-03-02T06:46:25;7.90;40.60
4183;DHT22;2105;52.300;9.182;2024-03-02T06:48:52;7.90;1.00
4183;DHT22;2105;52.300;9.182;2024-03-02T06:51:18;7.90;1.00
4183;DHT22;2105;52.300;9.182;2024-03-02T06:53:45;8.00;1.00
4183;DHT22;2105;52.300;9.182;2024-03-02T06:56:13;8.00;1.00
4183;DHT22;2105;52.300;9.182;2024-03-02T06:58:40;8.00;1.00
4183;DHT22;2105;52.300;9.182;2024-03-02T07:01:08;8.00;99.90
4183;DHT22;2105;52.300;9.182;2024-03-02T07:03:35;8.10;99.90
4183;DHT22;2105;52.300;9.182;2024-03-02T07:06:02;8.10;99.90
4183;DHT22;2105;52.300;9.182;2024-03-02T07:08:28;8.20;69.10
4183;DHT22;2105;52.300;9.182;2024-03-02T07:10:55;8.40;1.00
4183;DHT22;2105;52.300;9.182;2024-03-02T07:13:23;8.50;99.90
4183;DHT22;2105;52.300;9.182;2024-03-02T07:15:50;8.60;99.90
4183;DHT22;2105;52.300;9.182;2024-03-02T07:18:41;8.60;45.00
4183;DHT22;2105;52.300;9.182;2024-03-02T07:21:10;8.60;1.00
4183;DHT22;2105;52.300;9.182;2024-03-02T07:23:37;8.70;1.00
4183;DHT22;2105;52.300;9.182;2024-03-02T07:26:04;8.80;1.00
4183;DHT22;2105;52.300;9.182;2024-03-02T07:28:33;9.00;1.00
4183;DHT22;2105;52.300;9.182;2024-03-02T07:31:00;9.10;99.90
4183;DHT22;2105;52.300;9.182;2024-03-02T07:33:26;9.10;99.90
4183;DHT22;2105;52.300;9.182;2024-03-02T07:35:54;9.10;99.90
4183;DHT22;2105;52.300;9.182;2024-03-02T07:38:21;9.00;99.90
4183;DHT22;2105;52.300;9.182;2024-03-02T07:40:48;9.00;99.90
4183;DHT22;2105;52.300;9.182;2024-03-02T07:43:16;8.90;99.90
4183;DHT22;2105;52.300;9.182;2024-03-02T07:45:44;8.90;99.90
4183;DHT22;2105;52.300;9.182;2024-03-02T07:48:10;9.00;99.90
4183;DHT22;2105;52.300;9.182;2024-03-02T07:50:37;9.00;99.90
4183;DHT22;2105;52.300;9.182;2024-03-02T07:53:04;9.00;13.80
4183;DHT22;2105;52.300;9.182;2024-03-02T07:55:33;9.00;59.10
4183;DHT22;2105;52.300;9.182;2024-03-02T07:58:00;9.00;26.50
4183;DHT22;2105;52.300;9.182;2024-03-02T08:00:27;8.90;77.60
4183;DHT22;2105;52.300;9.182;2024-03-02T08:02:55;8.90;99.90
4183;DHT22;2105;52.300;9.182;2024-03-02T08:05:22;8.80;99.90
4183;DHT22;2105;52.300;9.182;2024-03-02T08:07:49;8.80;97.50
4183;DHT22;2105;52.300;9.182;2024-03-02T08:10:18;8.80;99.90
4183;DHT22;2105;52.300;9.182;2024-03-02T08:12:44;8.80;99.90
4183;DHT22;2105;52.300;9.182;2024-03-02T08:15:11;8.80;99.90
4183;DHT22;2105;52.300;9.182;2024-03-02T08:17:38;8.80;99.90
4183;DHT22;2105;52.300;9.182;2024-03-02T08:20:12;8.80;99.90
4183;DHT22;2105;52.300;9.182;2024-03-02T08:22:39;8.80;99.90
4183;DHT22;2105;52.300;9.182;2024-03-02T08:25:07;8.80;99.90
4183;DHT22;2105;52.300;9.182;2024-03-02T08:27:35;8.70;99.90
4183;DHT22;2105;52.300;9.182;2024-03-02T08:30:01;8.70;99.90
4183;DHT22;2105;52.300;9.182;2024-03-02T08:32:31;8.70;99.90
4183;DHT22;2105;52.300;9.182;2024-03-02T08:34:58;8.70;99.90
4183;DHT22;2105;52.300;9.182;2024-03-02T08:37:26;8.70;99.90
4183;DHT22;2105;52.300;9.182;2024-03-02T08:39:52;8.70;99.90
4183;DHT22;2105;52.300;9.182;2024-03-02T08:42:19;8.80;99.90
4183;DHT22;2105;52.300;9.182;2024-03-02T08:44:46;8.80;99.90
4183;DHT22;2105;52.300;9.182;2024-03-02T08:47:12;8.80;99.90
4183;DHT22;2105;52.300;9.182;2024-03-02T08:49:39;8.80;99.90
4183;DHT22;2105;52.300;9.182;2024-03-02T08:52:06;8.80;99.90
4183;DHT22;2105;52.300;9.182;2024-03-02T08:54:35;8.80;99.90
4183;DHT22;2105;52.300;9.182;2024-03-02T08:57:02;8.90;99.90
4183;DHT22;2105;52.300;9.182;2024-03-02T08:59:28;8.90;99.90
4183;DHT22;2105;52.300;9.182;2024-03-02T09:01:55;9.00;99.90
4183;DHT22;2105;52.300;9.182;2024-03-02T09:04:22;9.00;49.10
4183;DHT22;2105;52.300;9.182;2024-03-02T09:06:48;9.00;96.60
4183;DHT22;2105;52.300;9.182;2024-03-02T09:09:15;9.00;32.50
4183;DHT22;2105;52.300;9.182;2024-03-02T09:11:43;9.20;1.00
4183;DHT22;2105;52.300;9.182;2024-03-02T09:14:10;9.30;1.00
4183;DHT22;2105;52.300;9.182;2024-03-02T09:16:37;9.50;1.00
4183;DHT22;2105;52.300;9.182;2024-03-02T09:19:03;9.60;1.00
4183;DHT22;2105;52.300;9.182;2024-03-02T09:21:30;9.60;1.00
4183;DHT22;2105;52.300;9.182;2024-03-02T09:23:57;9.80;1.00
4183;DHT22;2105;52.300;9.182;2024-03-02T09:26:24;9.90;99.90
4183;DHT22;2105;52.300;9.182;2024-03-02T09:28:52;10.00;99.90
4183;DHT22;2105;52.300;9.182;2024-03-02T09:31:19;10.10;99.90
4183;DHT22;2105;52.300;9.182;2024-03-02T09:33:45;10.30;99.90
4183;DHT22;2105;52.300;9.182;2024-03-02T09:36:18;10.40;99.90
4183;DHT22;2105;52.300;9.182;2024-03-02T09:38:45;10.60;99.90
4183;DHT22;2105;52.300;9.182;2024-03-02T09:41:12;10.80;99.90
4183;DHT22;2105;52.300;9.182;2024-03-02T09:43:40;10.80;99.90
4183;DHT22;2105;52.300;9.182;2024-03-02T09:46:09;10.80;99.90
4183;DHT22;2105;52.300;9.182;2024-03-02T09:48:35;10.90;99.90
4183;DHT22;2105;52.300;9.182;2024-03-02T09:51:04;11.00;96.70
4183;DHT22;2105;52.300;9.182;2024-03-02T09:53:32;11.10;31.70
4183;DHT22;2105;52.300;9.182;2024-03-02T09:55:59;11.30;46.70
4183;DHT22;2105;52.300;9.182;2024-03-02T09:58:26;11.40;1.40
4183;DHT22;2105;52.300;9.182;2024-03-02T10:00:53;11.30;1.00
4183;DHT22;2105;52.300;9.182;2024-03-02T10:03:22;11.10;1.00
4183;DHT22;2105;52.300;9.182;2024-03-02T10:05:49;11.10;1.00
4183;DHT22;2105;52.300;9.182;2024-03-02T10:08:17;11.10;22.60
4183;DHT22;2105;52.300;9.182;2024-03-02T10:10:43;11.10;1.40
4183;DHT22;2105;52.300;9.182;2024-03-02T10:13:10;11.10;1.00
4183;DHT22;2105;52.300;9.182;2024-03-02T10:15:38;11.20;1.00
4183;DHT22;2105;52.300;9.182;2024-03-02T10:18:08;11.30;1.00
4183;DHT22;2105;52.300;9.182;2024-03-02T10:20:38;11.30;1.00
4183;DHT22;2105;52.300;9.182;2024-03-02T10:23:10;11.40;1.00
4183;DHT22;2105;52.300;9.182;2024-03-02T10:25:37;11.60;1.00
4183;DHT22;2105;52.300;9.182;2024-03-02T10:28:04;11.80;1.00
4183;DHT22;2105;52.300;9.182;2024-03-02T10:30:32;11.90;1.00
4183;DHT22;2105;52.300;9.182;2024-03-02T10:32:58;12.00;1.00
4183;DHT22;2105;52.300;9.182;2024-03-02T10:35:26;12.10;1.00
4183;DHT22;2105;52.300;9.182;2024-03-02T10:37:54;12.00;1.00
4183;DHT22;2105;52.300;9.182;2024-03-02T10:40:22;12.10;1.00
4183;DHT22;2105;52.300;9.182;2024-03-02T10:42:49;12.10;1.00
4183;DHT22;2105;52.300;9.182;2024-03-02T10:45:16;12.10;1.00
4183;DHT22;2105;52.300;9.182;2024-03-02T10:47:43;12.10;1.00
4183;DHT22;2105;52.300;9.182;2024-03-02T10:50:10;11.90;1.00
4183;DHT22;2105;52.300;9.182;2024-03-02T10:52:37;12.00;1.00
4183;DHT22;2105;52.300;9.182;2024-03-02T10:55:07;12.10;1.00
4183;DHT22;2105;52.300;9.182;2024-03-02T10:57:45;12.30;1.00
4183;DHT22;2105;52.300;9.182;2024-03-02T11:00:18;12.30;1.00
4183;DHT22;2105;52.300;9.182;2024-03-02T11:02:51;12.30;1.00
4183;DHT22;2105;52.300;9.182;2024-03-02T11:05:24;12.30;1.00
4183;DHT22;2105;52.300;9.182;2024-03-02T11:07:53;12.40;1.00
4183;DHT22;2105;52.300;9.182;2024-03-02T11:10:24;12.50;1.00
4183;DHT22;2105;52.300;9.182;2024-03-02T11:12:57;12.60;1.00
4183;DHT22;2105;52.300;9.182;2024-03-02T11:15:27;12.60;1.00
4183;DHT22;2105;52.300;9.182;2024-03-02T11:17:54;12.40;1.00
4183;DHT22;2105;52.300;9.182;2024-03-02T11:20:22;12.50;1.00
4183;DHT22;2105;52.300;9.182;2024-03-02T11:22:50;12.50;1.00
4183;DHT22;2105;52.300;9.182;2024-03-02T11:25:25;12.60;1.00
4183;DHT22;2105;52.300;9.182;2024-03-02T11:28:03;12.60;1.00
4183;DHT22;2105;52.300;9.182;2024-03-02T11:30:48;12.80;1.00
4183;DHT22;2105;52.300;9.182;2024-03-02T11:33:23;13.00;1.00
4183;DHT22;2105;52.300;9.182;2024-03-02T11:35:52;13.20;1.00
4183;DHT22;2105;52.300;9.182;2024-03-02T11:38:19;13.40;1.00
4183;DHT22;2105;52.300;9.182;2024-03-02T11:40:47;13.20;1.00
4183;DHT22;2105;52.300;9.182;2024-03-02T11:43:14;13.10;1.00
4183;DHT22;2105;52.300;9.182;2024-03-02T11:45:43;13.10;1.00
4183;DHT22;2105;52.300;9.182;2024-03-02T11:48:14;13.10;1.00
4183;DHT22;2105;52.300;9.182;2024-03-02T11:50:42;13.10;1.00
4183;DHT22;2105;52.300;9.182;2024-03-02T11:53:10;13.30;1.00
4183;DHT22;2105;52.300;9.182;2024-03-02T11:55:38;13.40;1.00
4183;DHT22;2105;52.300;9.182;2024-03-02T11:58:07;13.50;1.00
4183;DHT22;2105;52.300;9.182;2024-03-02T12:00:34;13.70;1.00
4183;DHT22;2105;52.300;9.182;2024-03-02T12:03:01;13.70;1.00
4183;DHT22;2105;52.300;9.182;2024-03-02T12:05:28;13.60;1.00
4183;DHT22;2105;52.300;9.182;2024-03-02T12:07:56;13.90;1.00
4183;DHT22;2105;52.300;9.182;2024-03-02T12:10:23;13.70;1.00
4183;DHT22;2105;52.300;9.182;2024-03-02T12:12:56;13.70;1.00
4183;DHT22;2105;52.300;9.182;2024-03-02T12:15:25;14.00;1.00
4183;DHT22;2105;52.300;9.182;2024-03-02T12:17:55;14.40;1.00
4183;DHT22;2105;52.300;9.182;2024-03-02T12:20:22;14.50;1.00
4183;DHT22;2105;52.300;9.182;2024-03-02T12:22:50;14.50;1.00
4183;DHT22;2105;52.300;9.182;2024-03-02T12:25:17;14.30;1.00
4183;DHT22;2105;52.300;9.182;2024-03-02T12:27:44;14.50;1.00
4183;DHT22;2105;52.300;9.182;2024-03-02T12:30:12;14.70;1.00
4183;DHT22;2105;52.300;9.182;2024-03-02T12:32:40;14.80;1.00
4183;DHT22;2105;52.300;9.182;2024-03-02T12:35:08;14.40;1.00
4183;DHT22;2105;52.300;9.182;2024-03-02T12:37:42;14.30;1.00
4183;DHT22;2105;52.300;9.182;2024-03-02T12:40:10;14.60;1.00
4183;DHT22;2105;52.300;9.182;2024-03-02T12:42:37;14.70;1.00
4183;DHT22;2105;52.300;9.182;2024-03-02T12:45:04;14.60;1.00
4183;DHT22;2105;52.300;9.182;2024-03-02T12:47:32;14.60;1.00
4183;DHT22;2105;52.300;9.182;2024-03-02T12:50:00;14.60;1.00
4183;DHT22;2105;52.300;9.182;2024-03-02T12:52:27;14.60;1.00
4183;DHT22;2105;52.300;9.182;2024-03-02T12:54:54;14.60;1.00
4183;DHT22;2105;52.300;9.182;2024-03-02T12:57:25;14.30;1.00
4183;DHT22;2105;52.300;9.182;2024-03-02T12:59:52;14.30;1.00
4183;DHT22;2105;52.300;9.182;2024-03-02T13:02:19;14.50;1.00
4183;DHT22;2105;52.300;9.182;2024-03-02T13:04:52;14.50;1.00
4183;DHT22;2105;52.300;9.182;2024-03-02T13:07:21;14.50;1.00
4183;DHT22;2105;52.300;9.182;2024-03-02T13:09:49;14.50;1.00
4183;DHT22;2105;52.300;9.182;2024-03-02T13:12:16;14.60;1.00
4183;DHT22;2105;52.300;9.182;2024-03-02T13:14:43;14.80;1.00
4183;DHT22;2105;52.300;9.182;2024-03-02T13:17:09;14.70;1.00
4183;DHT22;2105;52.300;9.182;2024-03-02T13:19:36;14.70;1.00
4183;DHT22;2105;52.300;9.182;2024-03-02T13:22:03;14.70;1.00
4183;DHT22;2105;52.300;9.182;2024-03-02T13:24:31;14.70;1.00
4183;DHT22;2105;52.300;9.182;2024-03-02T13:26:58;14.80;1.00
4183;DHT22;2105;52.300;9.182;2024-03-02T13:29:25;14.80;1.00
4183;DHT22;2105;52.300;9.182;2024-03-02T13:31:53;14.90;99.90
4183;DHT22;2105;52.300;9.182;2024-03-02T13:34:19;15.20;99.90
4183;DHT22;2105;52.300;9.182;2024-03-02T13:36:46;15.30;99.90
4183;DHT22;2105;52.300;9.182;2024-03-02T13:39:13;15.10;99.90
4183;DHT22;2105;52.300;9.182;2024-03-02T13:41:42;14.90;99.90
4183;DHT22;2105;52.300;9.182;2024-03-02T13:44:17;15.00;1.00
4183;DHT22;2105;52.300;9.182;2024-03-02T13:46:44;15.20;99.90
4183;DHT22;2105;52.300;9.182;2024-03-02T13:49:11;15.20;1.00
4183;DHT22;2105;52.300;9.182;2024-03-02T13:51:38;15.10;99.90
4183;DHT22;2105;52.300;9.182;2024-03-02T13:54:04;15.10;99.90
4183;DHT22;2105;52.300;9.182;2024-03-02T13:56:31;15.10;99.90
4183;DHT22;2105;52.300;9.182;2024-03-02T13:58:59;15.20;99.90
4183;DHT22;2105;52.300;9.182;2024-03-02T14:01:26;15.10;1.00
4183;DHT22;2105;52.300;9.182;2024-03-02T14:03:53;14.90;1.00
4183;DHT22;2105;52.300;9.182;2024-03-02T14:06:21;14.90;99.90
4183;DHT22;2105;52.300;9.182;2024-03-02T14:08:47;14.90;99.90
4183;DHT22;2105;52.300;9.182;2024-03-02T14:11:14;14.70;99.90
4183;DHT22;2105;52.300;9.182;2024-03-02T14:13:42;14.80;1.00
4183;DHT22;2105;52.300;9.182;2024-03-02T14:16:11;14.80;99.90
4183;DHT22;2105;52.300;9.182;2024-03-02T14:18:37;14.80;1.00
4183;DHT22;2105;52.300;9.182;2024-03-02T14:21:04;14.90;1.00
4183;DHT22;2105;52.300;9.182;2024-03-02T14:23:31;15.00;99.90
4183;DHT22;2105;52.300;9.182;2024-03-02T14:25:57;15.00;99.90
4183;DHT22;2105;52.300;9.182;2024-03-02T14:28:24;14.80;99.90
4183;DHT22;2105;52.300;9.182;2024-03-02T14:30:51;14.60;1.00
4183;DHT22;2105;52.300;9.182;2024-03-02T14:33:20;14.70;1.00
4183;DHT22;2105;52.300;9.182;2024-03-02T14:35:47;14.70;1.00
4183;DHT22;2105;52.300;9.182;2024-03-02T14:38:13;14.60;1.00
4183;DHT22;2105;52.300;9.182;2024-03-02T14:40:40;14.70;1.00
4183;DHT22;2105;52.300;9.182;2024-03-02T14:43:08;14.70;99.90
4183;DHT22;2105;52.300;9.182;2024-03-02T14:45:34;14.70;1.00
4183;DHT22;2105;52.300;9.182;2024-03-02T14:48:02;14.70;1.00
4183;DHT22;2105;52.300;9.182;2024-03-02T14:50:31;14.70;1.00
4183;DHT22;2105;52.300;9.182;2024-03-02T14:52:58;14.70;1.00
4183;DHT22;2105;52.300;9.182;2024-03-02T14:55:26;14.60;1.00
4183;DHT22;2105;52.300;9.182;2024-03-02T14:57:53;14.60;1.00
4183;DHT22;2105;52.300;9.182;2024-03-02T15:00:20;14.50;99.90
4183;DHT22;2105;52.300;9.182;2024-03-02T15:02:46;14.50;1.00
4183;DHT22;2105;52.300;9.182;2024-03-02T15:05:13;14.50;1.00
4183;DHT22;2105;52.300;9.182;2024-03-02T15:07:41;14.60;1.00
4183;DHT22;2105;52.300;9.182;2024-03-02T15:10:08;14.50;1.00
4183;DHT22;2105;52.300;9.182;2024-03-02T15:12:35;14.40;1.00
4183;DHT22;2105;52.300;9.182;2024-03-02T15:15:03;14.40;1.00
4183;DHT22;2105;52.300;9.182;2024-03-02T15:17:30;14.30;1.00
4183;DHT22;2105;52.300;9.182;2024-03-02T15:19:57;14.40;1.00
4183;DHT22;2105;52.300;9.182;2024-03-02T15:22:23;14.40;1.00
4183;DHT22;2105;52.300;9.182;2024-03-02T15:24:51;14.30;1.00
4183;DHT22;2105;52.300;9.182;2024-03-02T15:27:19;14.30;1.00
4183;DHT22;2105;52.300;9.182;2024-03-02T15:29:46;14.30;1.00
4183;DHT22;2105;52.300;9.182;2024-03-02T15:32:13;14.20;1.00
4183;DHT22;2105;52.300;9.182;2024-03-02T15:34:40;14.20;1.00
4183;DHT22;2105;52.300;9.182;2024-03-02T15:37:08;14.10;1.00
4183;DHT22;2105;52.300;9.182;2024-03-02T15:39:35;14.10;1.00
4183;DHT22;2105;52.300;9.182;2024-03-02T15:42:03;14.10;1.00
4183;DHT22;2105;52.300;9.182;2024-03-02T15:44:30;14.10;1.00
4183;DHT22;2105;52.300;9.182;2024-03-02T15:46:57;14.10;99.90
4183;DHT22;2105;52.300;9.182;2024-03-02T15:49:24;14.10;99.90
4183;DHT22;2105;52.300;9.182;2024-03-02T15:51:51;14.10;99.90
4183;DHT22;2105;52.300;9.182;2024-03-02T15:54:18;14.20;99.90
4183;DHT22;2105;52.300;9.182;2024-03-02T15:56:44;14.10;99.90
4183;DHT22;2105;52.300;9.182;2024-03-02T15:59:12;14.10;99.90
4183;DHT22;2105;52.300;9.182;2024-03-02T16:01:39;14.10;99.90
4183;DHT22;2105;52.300;9.182;2024-03-02T16:04:07;14.00;99.90
4183;DHT22;2105;52.300;9.182;2024-03-02T16:06:34;14.00;99.90
4183;DHT22;2105;52.300;9.182;2024-03-02T16:09:00;13.90;1.00
4183;DHT22;2105;52.300;9.182;2024-03-02T16:11:27;13.90;99.90
4183;DHT22;2105;52.300;9.182;2024-03-02T16:13:53;13.90;99.90
4183;DHT22;2105;52.300;9.182;2024-03-02T16:16:22;13.90;99.90
4183;DHT22;2105;52.300;9.182;2024-03-02T16:18:48;13.90;99.90
4183;DHT22;2105;52.300;9.182;2024-03-02T16:21:15;13.90;99.90